Portsmouth, NH (03804)

6:48 AM EDT on March 24, 2017 (GMT -0400)
Frame Pt Portsmouth | | Change Station

Elev 30 ft 43.07 °N, 70.75 °W | Updated 15 seconds ago

Overcast
Overcast
30.6 °F
Feels Like 31 °F
N
2.5
Wind Variable Wind from SSW
Gusts 2.5 mph

Today
High -- | Low -- °F
--% Chance of Precip.
Yesterday
High -- | Low -- °F
Precip. -- in
Pressure 30.48 in
Visibility 10.0 miles
Clouds Mostly Cloudy 11000 ft
Mostly Cloudy 20000 ft
Windchill 31 °F
Dew Point -3 °F
Humidity 23%
Rainfall 0.00 in
Snow Depth Not available.
6:38 AM 7:00 PM
Waning Crescent, 16% visible
METAR KPSM 240958Z 00000KT 10SM BKN110 BKN200 M04/M15 A3047 RMK AO2A SLP322 T10361146
Pressure 30.48 in
Visibility 10.0 miles
Clouds Mostly Cloudy 11000 ft
Mostly Cloudy 20000 ft
Windchill 31 °F
Dew Point -3 °F
Humidity 23%
Rainfall 0.00 in
Snow Depth Not available.
6:38 AM 7:00 PM
Waning Crescent, 16% visible
METAR KPSM 240958Z 00000KT 10SM BKN110 BKN200 M04/M15 A3047 RMK AO2A SLP322 T10361146

Get Severe Weather Alerts

Thanks for signing up!

Be on the lookout for a verification email in your inbox.

You'll start receiving the daily forecast at 8 AM.

×

10-Day Weather Forecast

Almanac

Astronomy

Mar. 24, 2017 Rise Set
Actual Time
Civil Twilight
Nautical Twilight
Astronomical Twilight
Moon
Length of Visible Light
Length of Day
Tomorrow will be .
, % of the Moon is Illuminated

Today's Extremes

State Highs State Lows

Community

WunderPhotos

Upload Photos

1,962,540 photos uploaded!

WunderBlog® & News

Nearby

Air Quality

  Air Quality AQ Index Pollutant
Not available.

Snow Depth

Station Depth Elevation

Earthquake Activity

City Distance Mag. Time & Date
Minimum magnitude displayed is 2.5.

Earthquake Activity

City Distance Mag. Time & Date
Minimum magnitude displayed is 2.5.

Coastal Water Temperatures

Place Temperature

Stations

Nearby Weather Stations

Station Location Temp. Windchill Dew Point Humidity Wind Precip. Elev Updated Type
                   

Watches & Warnings

There are currently no watches in effect.